sensor_id;sensor_type;location;lat;lon;timestamp;P1;durP1;ratioP1;P2;durP2;ratioP2
8889;SDS011;4481;43.406;24.454;2023-03-01T00:01:21;25.07;;;19.10;;
8889;SDS011;4481;43.406;24.454;2023-03-01T00:03:50;27.27;;;17.97;;
8889;SDS011;4481;43.406;24.454;2023-03-01T00:06:17;22.67;;;17.13;;
8889;SDS011;4481;43.406;24.454;2023-03-01T00:08:44;28.00;;;16.70;;
8889;SDS011;4481;43.406;24.454;2023-03-01T00:11:12;24.80;;;17.60;;
8889;SDS011;4481;43.406;24.454;2023-03-01T00:13:41;33.03;;;18.17;;
8889;SDS011;4481;43.406;24.454;2023-03-01T00:16:09;25.07;;;17.00;;
8889;SDS011;4481;43.406;24.454;2023-03-01T00:18:36;28.53;;;19.47;;
8889;SDS011;4481;43.406;24.454;2023-03-01T00:21:04;23.83;;;18.43;;
8889;SDS011;4481;43.406;24.454;2023-03-01T00:23:30;27.47;;;20.23;;
8889;SDS011;4481;43.406;24.454;2023-03-01T00:25:57;26.57;;;18.30;;
8889;SDS011;4481;43.406;24.454;2023-03-01T00:28:23;29.97;;;19.63;;
8889;SDS011;4481;43.406;24.454;2023-03-01T00:30:49;27.47;;;19.27;;
8889;SDS011;4481;43.406;24.454;2023-03-01T00:33:15;26.70;;;19.03;;
8889;SDS011;4481;43.406;24.454;2023-03-01T00:35:41;27.73;;;18.87;;
8889;SDS011;4481;43.406;24.454;2023-03-01T00:38:08;27.00;;;19.60;;
8889;SDS011;4481;43.406;24.454;2023-03-01T00:40:35;26.43;;;19.23;;
8889;SDS011;4481;43.406;24.454;2023-03-01T00:43:01;27.40;;;20.30;;
8889;SDS011;4481;43.406;24.454;2023-03-01T00:45:28;28.83;;;19.73;;
8889;SDS011;4481;43.406;24.454;2023-03-01T00:47:56;31.20;;;23.13;;
8889;SDS011;4481;43.406;24.454;2023-03-01T00:50:22;30.83;;;23.00;;
8889;SDS011;4481;43.406;24.454;2023-03-01T00:52:51;29.73;;;23.43;;
8889;SDS011;4481;43.406;24.454;2023-03-01T00:55:19;26.30;;;18.53;;
8889;SDS011;4481;43.406;24.454;2023-03-01T00:57:45;26.33;;;17.80;;
8889;SDS011;4481;43.406;24.454;2023-03-01T01:00:11;31.00;;;20.97;;
8889;SDS011;4481;43.406;24.454;2023-03-01T01:02:38;25.27;;;19.23;;
8889;SDS011;4481;43.406;24.454;2023-03-01T01:05:04;25.67;;;18.57;;
8889;SDS011;4481;43.406;24.454;2023-03-01T01:07:31;26.40;;;19.50;;
8889;SDS011;4481;43.406;24.454;2023-03-01T01:09:57;28.70;;;19.90;;
8889;SDS011;4481;43.406;24.454;2023-03-01T01:12:24;37.03;;;25.40;;
8889;SDS011;4481;43.406;24.454;2023-03-01T01:14:50;29.33;;;20.00;;
8889;SDS011;4481;43.406;24.454;2023-03-01T01:17:16;27.03;;;19.60;;
8889;SDS011;4481;43.406;24.454;2023-03-01T01:19:42;28.40;;;20.13;;
8889;SDS011;4481;43.406;24.454;2023-03-01T01:22:09;28.37;;;19.17;;
8889;SDS011;4481;43.406;24.454;2023-03-01T01:24:35;30.40;;;20.90;;
8889;SDS011;4481;43.406;24.454;2023-03-01T01:27:01;24.60;;;19.70;;
8889;SDS011;4481;43.406;24.454;2023-03-01T01:29:28;31.63;;;20.63;;
8889;SDS011;4481;43.406;24.454;2023-03-01T01:31:54;26.07;;;18.97;;
8889;SDS011;4481;43.406;24.454;2023-03-01T01:34:21;28.30;;;19.87;;
8889;SDS011;4481;43.406;24.454;2023-03-01T01:36:48;26.63;;;18.43;;
8889;SDS011;4481;43.406;24.454;2023-03-01T01:39:15;24.40;;;17.20;;
8889;SDS011;4481;43.406;24.454;2023-03-01T01:41:41;25.27;;;18.27;;
8889;SDS011;4481;43.406;24.454;2023-03-01T01:44:12;27.07;;;19.13;;
8889;SDS011;4481;43.406;24.454;2023-03-01T01:46:41;27.43;;;18.13;;
8889;SDS011;4481;43.406;24.454;2023-03-01T01:49:12;27.40;;;17.97;;
8889;SDS011;4481;43.406;24.454;2023-03-01T01:51:49;25.27;;;17.33;;
8889;SDS011;4481;43.406;24.454;2023-03-01T01:54:18;24.00;;;17.63;;
8889;SDS011;4481;43.406;24.454;2023-03-01T01:56:50;27.07;;;18.20;;
8889;SDS011;4481;43.406;24.454;2023-03-01T01:59:22;24.80;;;18.63;;
8889;SDS011;4481;43.406;24.454;2023-03-01T02:01:51;23.93;;;17.13;;
8889;SDS011;4481;43.406;24.454;2023-03-01T02:04:17;23.30;;;17.77;;
8889;SDS011;4481;43.406;24.454;2023-03-01T02:06:45;21.97;;;15.50;;
8889;SDS011;4481;43.406;24.454;2023-03-01T02:09:15;22.63;;;17.07;;
8889;SDS011;4481;43.406;24.454;2023-03-01T02:11:44;25.33;;;17.80;;
8889;SDS011;4481;43.406;24.454;2023-03-01T02:14:10;20.97;;;16.30;;
8889;SDS011;4481;43.406;24.454;2023-03-01T02:16:36;26.67;;;16.93;;
8889;SDS011;4481;43.406;24.454;2023-03-01T02:19:03;24.23;;;16.70;;
8889;SDS011;4481;43.406;24.454;2023-03-01T02:21:34;23.00;;;18.03;;
8889;SDS011;4481;43.406;24.454;2023-03-01T02:24:12;26.07;;;16.33;;
8889;SDS011;4481;43.406;24.454;2023-03-01T02:26:48;20.23;;;15.33;;
8889;SDS011;4481;43.406;24.454;2023-03-01T02:29:17;23.27;;;17.43;;
8889;SDS011;4481;43.406;24.454;2023-03-01T02:31:44;23.57;;;16.43;;
8889;SDS011;4481;43.406;24.454;2023-03-01T02:34:11;27.10;;;17.80;;
8889;SDS011;4481;43.406;24.454;2023-03-01T02:36:39;22.83;;;17.27;;
8889;SDS011;4481;43.406;24.454;2023-03-01T02:39:08;20.60;;;15.33;;
8889;SDS011;4481;43.406;24.454;2023-03-01T02:41:42;23.93;;;18.03;;
8889;SDS011;4481;43.406;24.454;2023-03-01T02:44:12;20.37;;;15.70;;
8889;SDS011;4481;43.406;24.454;2023-03-01T02:46:42;21.63;;;17.00;;
8889;SDS011;4481;43.406;24.454;2023-03-01T02:49:20;20.20;;;16.90;;
8889;SDS011;4481;43.406;24.454;2023-03-01T02:51:52;25.10;;;16.43;;
8889;SDS011;4481;43.406;24.454;2023-03-01T02:54:28;22.97;;;15.70;;
8889;SDS011;4481;43.406;24.454;2023-03-01T02:56:59;20.57;;;14.70;;
8889;SDS011;4481;43.406;24.454;2023-03-01T02:59:27;25.27;;;15.63;;
8889;SDS011;4481;43.406;24.454;2023-03-01T03:01:57;22.00;;;15.03;;
8889;SDS011;4481;43.406;24.454;2023-03-01T03:04:25;18.57;;;14.33;;
8889;SDS011;4481;43.406;24.454;2023-03-01T03:06:52;24.03;;;15.83;;
8889;SDS011;4481;43.406;24.454;2023-03-01T03:09:18;22.00;;;15.13;;
8889;SDS011;4481;43.406;24.454;2023-03-01T03:11:45;21.23;;;14.53;;
8889;SDS011;4481;43.406;24.454;2023-03-01T03:14:12;17.40;;;15.33;;
8889;SDS011;4481;43.406;24.454;2023-03-01T03:16:40;17.57;;;14.47;;
8889;SDS011;4481;43.406;24.454;2023-03-01T03:19:07;17.57;;;13.57;;
8889;SDS011;4481;43.406;24.454;2023-03-01T03:21:34;22.80;;;14.53;;
8889;SDS011;4481;43.406;24.454;2023-03-01T03:24:00;20.10;;;15.47;;
8889;SDS011;4481;43.406;24.454;2023-03-01T03:26:27;19.03;;;14.17;;
8889;SDS011;4481;43.406;24.454;2023-03-01T03:28:53;18.33;;;13.60;;
8889;SDS011;4481;43.406;24.454;2023-03-01T03:31:19;16.03;;;12.97;;
8889;SDS011;4481;43.406;24.454;2023-03-01T03:33:45;16.20;;;12.87;;
8889;SDS011;4481;43.406;24.454;2023-03-01T03:36:15;19.97;;;13.80;;
8889;SDS011;4481;43.406;24.454;2023-03-01T03:38:43;18.47;;;13.13;;
8889;SDS011;4481;43.406;24.454;2023-03-01T03:41:09;18.60;;;13.47;;
8889;SDS011;4481;43.406;24.454;2023-03-01T03:43:36;15.67;;;12.63;;
8889;SDS011;4481;43.406;24.454;2023-03-01T03:46:03;20.00;;;13.70;;
8889;SDS011;4481;43.406;24.454;2023-03-01T03:48:30;15.33;;;11.90;;
8889;SDS011;4481;43.406;24.454;2023-03-01T03:50:58;19.27;;;13.10;;
8889;SDS011;4481;43.406;24.454;2023-03-01T03:53:25;16.87;;;13.47;;
8889;SDS011;4481;43.406;24.454;2023-03-01T03:55:53;19.60;;;11.83;;
8889;SDS011;4481;43.406;24.454;2023-03-01T03:58:20;15.37;;;12.23;;
8889;SDS011;4481;43.406;24.454;2023-03-01T04:00:48;18.47;;;12.93;;
8889;SDS011;4481;43.406;24.454;2023-03-01T04:03:16;17.60;;;13.07;;
8889;SDS011;4481;43.406;24.454;2023-03-01T04:05:43;16.87;;;12.57;;
8889;SDS011;4481;43.406;24.454;2023-03-01T04:08:10;18.63;;;13.33;;
8889;SDS011;4481;43.406;24.454;2023-03-01T04:10:38;15.70;;;11.77;;
8889;SDS011;4481;43.406;24.454;2023-03-01T04:13:07;16.37;;;13.33;;
8889;SDS011;4481;43.406;24.454;2023-03-01T04:15:37;15.90;;;12.30;;
8889;SDS011;4481;43.406;24.454;2023-03-01T04:18:03;22.10;;;14.70;;
8889;SDS011;4481;43.406;24.454;2023-03-01T04:20:32;24.23;;;16.93;;
8889;SDS011;4481;43.406;24.454;2023-03-01T04:23:00;21.57;;;13.47;;
8889;SDS011;4481;43.406;24.454;2023-03-01T04:25:35;17.87;;;13.37;;
8889;SDS011;4481;43.406;24.454;2023-03-01T04:28:03;20.10;;;13.23;;
8889;SDS011;4481;43.406;24.454;2023-03-01T04:30:29;18.83;;;14.27;;
8889;SDS011;4481;43.406;24.454;2023-03-01T04:33:01;23.33;;;15.30;;
8889;SDS011;4481;43.406;24.454;2023-03-01T04:35:27;21.70;;;15.83;;
8889;SDS011;4481;43.406;24.454;2023-03-01T04:37:53;21.23;;;15.67;;
8889;SDS011;4481;43.406;24.454;2023-03-01T04:40:20;19.83;;;15.20;;
8889;SDS011;4481;43.406;24.454;2023-03-01T04:42:46;21.40;;;16.00;;
8889;SDS011;4481;43.406;24.454;2023-03-01T04:45:13;19.23;;;13.60;;
8889;SDS011;4481;43.406;24.454;2023-03-01T04:47:40;20.03;;;13.93;;
8889;SDS011;4481;43.406;24.454;2023-03-01T04:50:08;18.97;;;14.40;;
8889;SDS011;4481;43.406;24.454;2023-03-01T04:52:35;20.50;;;15.13;;
8889;SDS011;4481;43.406;24.454;2023-03-01T04:55:01;19.57;;;14.43;;
8889;SDS011;4481;43.406;24.454;2023-03-01T04:57:28;18.13;;;13.30;;
8889;SDS011;4481;43.406;24.454;2023-03-01T04:59:54;19.23;;;12.70;;
8889;SDS011;4481;43.406;24.454;2023-03-01T05:02:21;19.53;;;13.47;;
8889;SDS011;4481;43.406;24.454;2023-03-01T05:04:48;22.77;;;15.17;;
8889;SDS011;4481;43.406;24.454;2023-03-01T05:07:14;20.90;;;14.53;;
8889;SDS011;4481;43.406;24.454;2023-03-01T05:09:44;21.73;;;17.23;;
8889;SDS011;4481;43.406;24.454;2023-03-01T05:12:10;21.53;;;16.30;;
8889;SDS011;4481;43.406;24.454;2023-03-01T05:14:36;20.00;;;16.03;;
8889;SDS011;4481;43.406;24.454;2023-03-01T05:17:03;21.97;;;16.33;;
8889;SDS011;4481;43.406;24.454;2023-03-01T05:19:30;22.27;;;16.93;;
8889;SDS011;4481;43.406;24.454;2023-03-01T05:21:57;23.17;;;18.10;;
8889;SDS011;4481;43.406;24.454;2023-03-01T05:24:27;29.43;;;18.07;;
8889;SDS011;4481;43.406;24.454;2023-03-01T05:26:53;23.73;;;18.17;;
8889;SDS011;4481;43.406;24.454;2023-03-01T05:29:20;24.73;;;17.37;;
8889;SDS011;4481;43.406;24.454;2023-03-01T05:31:50;23.27;;;16.83;;
8889;SDS011;4481;43.406;24.454;2023-03-01T05:34:17;22.27;;;17.33;;
8889;SDS011;4481;43.406;24.454;2023-03-01T05:36:44;22.53;;;17.23;;
8889;SDS011;4481;43.406;24.454;2023-03-01T05:39:10;25.73;;;18.67;;
8889;SDS011;4481;43.406;24.454;2023-03-01T05:41:36;22.50;;;15.83;;
8889;SDS011;4481;43.406;24.454;2023-03-01T05:44:02;28.03;;;16.93;;
8889;SDS011;4481;43.406;24.454;2023-03-01T05:46:29;23.43;;;16.90;;
8889;SDS011;4481;43.406;24.454;2023-03-01T05:48:56;29.17;;;16.50;;
8889;SDS011;4481;43.406;24.454;2023-03-01T05:51:22;22.53;;;17.40;;
8889;SDS011;4481;43.406;24.454;2023-03-01T05:53:48;26.97;;;18.87;;
8889;SDS011;4481;43.406;24.454;2023-03-01T05:56:15;23.63;;;17.70;;
8889;SDS011;4481;43.406;24.454;2023-03-01T05:58:41;27.13;;;19.20;;
8889;SDS011;4481;43.406;24.454;2023-03-01T06:01:10;22.97;;;17.10;;
8889;SDS011;4481;43.406;24.454;2023-03-01T06:03:38;21.57;;;16.33;;
8889;SDS011;4481;43.406;24.454;2023-03-01T06:06:04;22.10;;;17.03;;
8889;SDS011;4481;43.406;24.454;2023-03-01T06:08:38;22.47;;;16.20;;
8889;SDS011;4481;43.406;24.454;2023-03-01T06:11:05;24.70;;;17.53;;
8889;SDS011;4481;43.406;24.454;2023-03-01T06:13:32;23.27;;;18.03;;
8889;SDS011;4481;43.406;24.454;2023-03-01T06:15:58;24.87;;;18.40;;
8889;SDS011;4481;43.406;24.454;2023-03-01T06:18:24;24.70;;;18.37;;
8889;SDS011;4481;43.406;24.454;2023-03-01T06:20:52;27.00;;;18.20;;
8889;SDS011;4481;43.406;24.454;2023-03-01T06:23:19;25.90;;;16.87;;
8889;SDS011;4481;43.406;24.454;2023-03-01T06:25:45;22.03;;;17.87;;
8889;SDS011;4481;43.406;24.454;2023-03-01T06:28:12;26.90;;;17.47;;
8889;SDS011;4481;43.406;24.454;2023-03-01T06:30:38;27.20;;;17.30;;
8889;SDS011;4481;43.406;24.454;2023-03-01T06:33:04;22.10;;;18.50;;
8889;SDS011;4481;43.406;24.454;2023-03-01T06:35:30;24.23;;;17.03;;
8889;SDS011;4481;43.406;24.454;2023-03-01T06:37:58;28.57;;;20.27;;
8889;SDS011;4481;43.406;24.454;2023-03-01T06:40:24;31.83;;;20.67;;
8889;SDS011;4481;43.406;24.454;2023-03-01T06:42:51;37.30;;;23.70;;
8889;SDS011;4481;43.406;24.454;2023-03-01T06:45:18;28.37;;;19.63;;
8889;SDS011;4481;43.406;24.454;2023-03-01T06:47:46;25.50;;;18.40;;
8889;SDS011;4481;43.406;24.454;2023-03-01T06:50:13;26.40;;;18.27;;
8889;SDS011;4481;43.406;24.454;2023-03-01T06:52:39;27.27;;;18.90;;
8889;SDS011;4481;43.406;24.454;2023-03-01T06:55:06;21.97;;;17.07;;
8889;SDS011;4481;43.406;24.454;2023-03-01T06:57:32;22.23;;;17.33;;
8889;SDS011;4481;43.406;24.454;2023-03-01T06:59:59;22.83;;;17.53;;
8889;SDS011;4481;43.406;24.454;2023-03-01T07:02:25;22.47;;;17.90;;
8889;SDS011;4481;43.406;24.454;2023-03-01T07:04:52;25.07;;;18.43;;
8889;SDS011;4481;43.406;24.454;2023-03-01T07:07:18;25.57;;;17.27;;
8889;SDS011;4481;43.406;24.454;2023-03-01T07:09:45;26.13;;;16.83;;
8889;SDS011;4481;43.406;24.454;2023-03-01T07:12:11;27.47;;;18.87;;
8889;SDS011;4481;43.406;24.454;2023-03-01T07:14:38;27.53;;;20.47;;
8889;SDS011;4481;43.406;24.454;2023-03-01T07:17:04;24.70;;;17.73;;
8889;SDS011;4481;43.406;24.454;2023-03-01T07:19:31;21.47;;;17.13;;
8889;SDS011;4481;43.406;24.454;2023-03-01T07:21:58;29.80;;;20.57;;
8889;SDS011;4481;43.406;24.454;2023-03-01T07:24:25;29.93;;;21.20;;
8889;SDS011;4481;43.406;24.454;2023-03-01T07:26:51;33.53;;;23.63;;
8889;SDS011;4481;43.406;24.454;2023-03-01T07:29:18;34.47;;;24.77;;
8889;SDS011;4481;43.406;24.454;2023-03-01T07:31:45;35.40;;;25.80;;
8889;SDS011;4481;43.406;24.454;2023-03-01T07:34:11;36.17;;;25.50;;
8889;SDS011;4481;43.406;24.454;2023-03-01T07:36:38;36.83;;;23.43;;
8889;SDS011;4481;43.406;24.454;2023-03-01T07:39:08;37.20;;;24.03;;
8889;SDS011;4481;43.406;24.454;2023-03-01T07:41:35;41.07;;;24.93;;
8889;SDS011;4481;43.406;24.454;2023-03-01T07:44:02;41.03;;;24.07;;
8889;SDS011;4481;43.406;24.454;2023-03-01T07:46:28;37.33;;;25.07;;
8889;SDS011;4481;43.406;24.454;2023-03-01T07:48:54;32.33;;;25.13;;
8889;SDS011;4481;43.406;24.454;2023-03-01T07:51:20;38.00;;;24.70;;
8889;SDS011;4481;43.406;24.454;2023-03-01T07:53:47;38.40;;;24.03;;
8889;SDS011;4481;43.406;24.454;2023-03-01T07:56:14;37.33;;;23.47;;
8889;SDS011;4481;43.406;24.454;2023-03-01T07:58:43;40.97;;;26.00;;
8889;SDS011;4481;43.406;24.454;2023-03-01T08:01:11;46.07;;;27.73;;
8889;SDS011;4481;43.406;24.454;2023-03-01T08:03:39;48.23;;;28.97;;
8889;SDS011;4481;43.406;24.454;2023-03-01T08:06:06;39.50;;;23.33;;
8889;SDS011;4481;43.406;24.454;2023-03-01T08:08:33;39.73;;;26.37;;
8889;SDS011;4481;43.406;24.454;2023-03-01T08:11:01;33.30;;;23.77;;
8889;SDS011;4481;43.406;24.454;2023-03-01T08:13:28;36.93;;;22.90;;
8889;SDS011;4481;43.406;24.454;2023-03-01T08:16:00;39.27;;;25.33;;
8889;SDS011;4481;43.406;24.454;2023-03-01T08:18:27;38.93;;;24.60;;
8889;SDS011;4481;43.406;24.454;2023-03-01T08:20:53;34.73;;;24.20;;
8889;SDS011;4481;43.406;24.454;2023-03-01T08:23:19;38.30;;;25.43;;
8889;SDS011;4481;43.406;24.454;2023-03-01T08:25:46;37.73;;;26.23;;
8889;SDS011;4481;43.406;24.454;2023-03-01T08:28:12;34.90;;;23.70;;
8889;SDS011;4481;43.406;24.454;2023-03-01T08:30:39;40.27;;;24.67;;
8889;SDS011;4481;43.406;24.454;2023-03-01T08:33:06;30.23;;;21.43;;
8889;SDS011;4481;43.406;24.454;2023-03-01T08:35:33;31.97;;;20.17;;
8889;SDS011;4481;43.406;24.454;2023-03-01T08:37:59;28.07;;;19.17;;
8889;SDS011;4481;43.406;24.454;2023-03-01T08:40:26;25.20;;;17.80;;
8889;SDS011;4481;43.406;24.454;2023-03-01T08:42:52;28.23;;;20.57;;
8889;SDS011;4481;43.406;24.454;2023-03-01T08:45:19;27.97;;;20.13;;
8889;SDS011;4481;43.406;24.454;2023-03-01T08:47:45;28.70;;;19.80;;
8889;SDS011;4481;43.406;24.454;2023-03-01T08:50:11;29.10;;;19.37;;
8889;SDS011;4481;43.406;24.454;2023-03-01T08:52:40;29.50;;;21.67;;
8889;SDS011;4481;43.406;24.454;2023-03-01T08:55:08;32.23;;;22.73;;
8889;SDS011;4481;43.406;24.454;2023-03-01T08:57:36;33.43;;;23.23;;
8889;SDS011;4481;43.406;24.454;2023-03-01T09:00:02;33.17;;;23.93;;
8889;SDS011;4481;43.406;24.454;2023-03-01T09:02:34;31.17;;;22.80;;
8889;SDS011;4481;43.406;24.454;2023-03-01T09:05:00;30.87;;;21.70;;
8889;SDS011;4481;43.406;24.454;2023-03-01T09:07:28;31.27;;;22.57;;
8889;SDS011;4481;43.406;24.454;2023-03-01T09:09:54;30.90;;;22.20;;
8889;SDS011;4481;43.406;24.454;2023-03-01T09:12:21;25.60;;;18.13;;
8889;SDS011;4481;43.406;24.454;2023-03-01T09:14:47;30.77;;;22.13;;
8889;SDS011;4481;43.406;24.454;2023-03-01T09:17:14;23.53;;;18.83;;
8889;SDS011;4481;43.406;24.454;2023-03-01T09:19:44;27.47;;;20.33;;
8889;SDS011;4481;43.406;24.454;2023-03-01T09:22:11;31.30;;;21.77;;
8889;SDS011;4481;43.406;24.454;2023-03-01T09:24:37;33.00;;;22.00;;
8889;SDS011;4481;43.406;24.454;2023-03-01T09:27:04;35.37;;;24.73;;
8889;SDS011;4481;43.406;24.454;2023-03-01T09:29:33;33.13;;;22.77;;
8889;SDS011;4481;43.406;24.454;2023-03-01T09:32:00;41.53;;;28.73;;
8889;SDS011;4481;43.406;24.454;2023-03-01T09:34:26;39.63;;;26.80;;
8889;SDS011;4481;43.406;24.454;2023-03-01T09:36:53;35.80;;;24.27;;
8889;SDS011;4481;43.406;24.454;2023-03-01T09:39:20;36.93;;;24.37;;
8889;SDS011;4481;43.406;24.454;2023-03-01T09:41:47;34.40;;;24.33;;
8889;SDS011;4481;43.406;24.454;2023-03-01T09:44:28;43.03;;;28.97;;
8889;SDS011;4481;43.406;24.454;2023-03-01T09:46:58;38.80;;;25.80;;
8889;SDS011;4481;43.406;24.454;2023-03-01T09:49:26;32.30;;;21.63;;
8889;SDS011;4481;43.406;24.454;2023-03-01T09:51:57;30.63;;;21.23;;
8889;SDS011;4481;43.406;24.454;2023-03-01T09:54:27;36.40;;;24.70;;
8889;SDS011;4481;43.406;24.454;2023-03-01T09:59:48;33.67;;;25.23;;
8889;SDS011;4481;43.406;24.454;2023-03-01T10:02:36;27.13;;;20.30;;
8889;SDS011;4481;43.406;24.454;2023-03-01T10:05:13;44.30;;;21.90;;
8889;SDS011;4481;43.406;24.454;2023-03-01T10:07:54;26.20;;;19.90;;
8889;SDS011;4481;43.406;24.454;2023-03-01T10:10:28;25.83;;;19.13;;
8889;SDS011;4481;43.406;24.454;2023-03-01T10:12:58;26.00;;;18.43;;
8889;SDS011;4481;43.406;24.454;2023-03-01T10:15:30;27.37;;;20.80;;
8889;SDS011;4481;43.406;24.454;2023-03-01T10:18:04;33.93;;;23.20;;
8889;SDS011;4481;43.406;24.454;2023-03-01T10:20:39;31.83;;;22.00;;
8889;SDS011;4481;43.406;24.454;2023-03-01T10:23:12;32.70;;;23.43;;
8889;SDS011;4481;43.406;24.454;2023-03-01T10:25:43;34.87;;;23.80;;
8889;SDS011;4481;43.406;24.454;2023-03-01T10:28:18;32.23;;;22.97;;
8889;SDS011;4481;43.406;24.454;2023-03-01T10:30:53;31.20;;;23.67;;
8889;SDS011;4481;43.406;24.454;2023-03-01T10:33:20;34.57;;;24.33;;
8889;SDS011;4481;43.406;24.454;2023-03-01T10:35:52;28.33;;;22.03;;
8889;SDS011;4481;43.406;24.454;2023-03-01T10:38:19;37.03;;;24.07;;
8889;SDS011;4481;43.406;24.454;2023-03-01T10:40:53;24.50;;;19.60;;
8889;SDS011;4481;43.406;24.454;2023-03-01T10:43:22;30.37;;;21.33;;
8889;SDS011;4481;43.406;24.454;2023-03-01T10:45:50;27.97;;;19.77;;
8889;SDS011;4481;43.406;24.454;2023-03-01T10:48:16;28.53;;;19.67;;
8889;SDS011;4481;43.406;24.454;2023-03-01T10:50:46;28.50;;;22.20;;
8889;SDS011;4481;43.406;24.454;2023-03-01T10:53:22;31.77;;;21.27;;
8889;SDS011;4481;43.406;24.454;2023-03-01T10:55:57;33.47;;;24.87;;
8889;SDS011;4481;43.406;24.454;2023-03-01T10:58:25;40.53;;;25.43;;
8889;SDS011;4481;43.406;24.454;2023-03-01T11:00:53;38.80;;;28.00;;
8889;SDS011;4481;43.406;24.454;2023-03-01T11:03:21;36.23;;;26.13;;
8889;SDS011;4481;43.406;24.454;2023-03-01T11:05:51;34.90;;;26.70;;
8889;SDS011;4481;43.406;24.454;2023-03-01T11:08:30;34.97;;;24.17;;
8889;SDS011;4481;43.406;24.454;2023-03-01T11:11:16;29.67;;;20.90;;
8889;SDS011;4481;43.406;24.454;2023-03-01T11:13:54;30.27;;;19.70;;
8889;SDS011;4481;43.406;24.454;2023-03-01T11:16:24;25.43;;;19.33;;
8889;SDS011;4481;43.406;24.454;2023-03-01T11:18:56;20.60;;;16.50;;
8889;SDS011;4481;43.406;24.454;2023-03-01T11:21:24;28.53;;;20.53;;
8889;SDS011;4481;43.406;24.454;2023-03-01T11:23:53;28.80;;;20.83;;
8889;SDS011;4481;43.406;24.454;2023-03-01T11:26:19;28.83;;;21.43;;
8889;SDS011;4481;43.406;24.454;2023-03-01T11:28:47;27.07;;;19.33;;
8889;SDS011;4481;43.406;24.454;2023-03-01T11:31:19;30.13;;;20.13;;
8889;SDS011;4481;43.406;24.454;2023-03-01T11:33:49;28.07;;;19.40;;
8889;SDS011;4481;43.406;24.454;2023-03-01T11:36:24;26.30;;;20.27;;
8889;SDS011;4481;43.406;24.454;2023-03-01T11:38:56;23.80;;;18.13;;
8889;SDS011;4481;43.406;24.454;2023-03-01T11:41:28;23.17;;;17.10;;
8889;SDS011;4481;43.406;24.454;2023-03-01T11:43:57;26.07;;;20.07;;
8889;SDS011;4481;43.406;24.454;2023-03-01T11:46:36;29.90;;;21.40;;
8889;SDS011;4481;43.406;24.454;2023-03-01T11:49:26;21.60;;;16.60;;
8889;SDS011;4481;43.406;24.454;2023-03-01T11:52:01;23.53;;;15.10;;
8889;SDS011;4481;43.406;24.454;2023-03-01T11:54:37;23.90;;;15.90;;
8889;SDS011;4481;43.406;24.454;2023-03-01T11:57:15;19.83;;;15.20;;
8889;SDS011;4481;43.406;24.454;2023-03-01T11:59:59;18.67;;;14.83;;
8889;SDS011;4481;43.406;24.454;2023-03-01T12:02:47;20.87;;;15.27;;
8889;SDS011;4481;43.406;24.454;2023-03-01T12:05:40;21.40;;;15.10;;
8889;SDS011;4481;43.406;24.454;2023-03-01T12:08:18;28.87;;;20.03;;
8889;SDS011;4481;43.406;24.454;2023-03-01T12:10:55;28.73;;;19.53;;
8889;SDS011;4481;43.406;24.454;2023-03-01T12:13:43;24.07;;;19.90;;
8889;SDS011;4481;43.406;24.454;2023-03-01T12:16:47;27.77;;;18.73;;
8889;SDS011;4481;43.406;24.454;2023-03-01T12:19:31;26.87;;;18.33;;
8889;SDS011;4481;43.406;24.454;2023-03-01T12:22:09;25.37;;;18.67;;
8889;SDS011;4481;43.406;24.454;2023-03-01T12:25:08;21.90;;;16.30;;
8889;SDS011;4481;43.406;24.454;2023-03-01T12:27:50;26.23;;;16.80;;
8889;SDS011;4481;43.406;24.454;2023-03-01T12:30:31;22.17;;;16.47;;
8889;SDS011;4481;43.406;24.454;2023-03-01T12:33:09;24.77;;;16.87;;
8889;SDS011;4481;43.406;24.454;2023-03-01T12:35:49;23.13;;;16.53;;
8889;SDS011;4481;43.406;24.454;2023-03-01T12:38:32;20.60;;;16.93;;
8889;SDS011;4481;43.406;24.454;2023-03-01T12:41:10;23.33;;;15.70;;
8889;SDS011;4481;43.406;24.454;2023-03-01T12:43:50;18.63;;;14.97;;
8889;SDS011;4481;43.406;24.454;2023-03-01T12:46:27;17.43;;;14.90;;
8889;SDS011;4481;43.406;24.454;2023-03-01T12:49:04;19.27;;;14.87;;
8889;SDS011;4481;43.406;24.454;2023-03-01T12:51:37;21.23;;;15.33;;
8889;SDS011;4481;43.406;24.454;2023-03-01T12:54:07;19.37;;;14.93;;
8889;SDS011;4481;43.406;24.454;2023-03-01T12:56:40;20.07;;;15.13;;
8889;SDS011;4481;43.406;24.454;2023-03-01T12:59:11;21.40;;;15.30;;
8889;SDS011;4481;43.406;24.454;2023-03-01T13:01:45;23.20;;;14.40;;
8889;SDS011;4481;43.406;24.454;2023-03-01T13:04:21;19.70;;;15.07;;
8889;SDS011;4481;43.406;24.454;2023-03-01T13:07:08;21.50;;;15.83;;
8889;SDS011;4481;43.406;24.454;2023-03-01T13:09:45;21.90;;;16.47;;
8889;SDS011;4481;43.406;24.454;2023-03-01T13:15:25;21.13;;;14.30;;
8889;SDS011;4481;43.406;24.454;2023-03-01T13:17:53;20.63;;;15.70;;
8889;SDS011;4481;43.406;24.454;2023-03-01T13:20:21;20.77;;;15.50;;
8889;SDS011;4481;43.406;24.454;2023-03-01T13:22:59;22.33;;;15.73;;
8889;SDS011;4481;43.406;24.454;2023-03-01T13:25:31;27.63;;;19.13;;
8889;SDS011;4481;43.406;24.454;2023-03-01T13:37:18;19.07;;;15.40;;
8889;SDS011;4481;43.406;24.454;2023-03-01T13:39:46;24.37;;;16.60;;
8889;SDS011;4481;43.406;24.454;2023-03-01T13:42:33;24.90;;;17.90;;
8889;SDS011;4481;43.406;24.454;2023-03-01T13:45:03;25.73;;;17.40;;
8889;SDS011;4481;43.406;24.454;2023-03-01T13:47:41;19.67;;;15.00;;
8889;SDS011;4481;43.406;24.454;2023-03-01T13:50:16;21.20;;;16.53;;
8889;SDS011;4481;43.406;24.454;2023-03-01T13:52:47;22.43;;;16.00;;
8889;SDS011;4481;43.406;24.454;2023-03-01T13:55:17;20.17;;;15.87;;
8889;SDS011;4481;43.406;24.454;2023-03-01T13:57:47;21.07;;;16.70;;
8889;SDS011;4481;43.406;24.454;2023-03-01T14:00:26;24.10;;;16.70;;
8889;SDS011;4481;43.406;24.454;2023-03-01T14:03:05;25.57;;;18.47;;
8889;SDS011;4481;43.406;24.454;2023-03-01T14:05:36;28.03;;;17.93;;
8889;SDS011;4481;43.406;24.454;2023-03-01T14:08:03;26.50;;;19.10;;
8889;SDS011;4481;43.406;24.454;2023-03-01T14:10:31;29.83;;;21.87;;
8889;SDS011;4481;43.406;24.454;2023-03-01T14:13:08;24.23;;;18.20;;
8889;SDS011;4481;43.406;24.454;2023-03-01T14:15:47;28.80;;;20.63;;
8889;SDS011;4481;43.406;24.454;2023-03-01T14:18:23;27.40;;;19.47;;
8889;SDS011;4481;43.406;24.454;2023-03-01T14:20:53;32.43;;;21.63;;
8889;SDS011;4481;43.406;24.454;2023-03-01T14:23:21;25.80;;;17.90;;
8889;SDS011;4481;43.406;24.454;2023-03-01T14:25:48;23.87;;;17.37;;
8889;SDS011;4481;43.406;24.454;2023-03-01T14:28:17;23.10;;;15.70;;
8889;SDS011;4481;43.406;24.454;2023-03-01T14:30:46;21.47;;;15.70;;
8889;SDS011;4481;43.406;24.454;2023-03-01T14:33:21;29.80;;;20.70;;
8889;SDS011;4481;43.406;24.454;2023-03-01T14:35:56;26.43;;;19.17;;
8889;SDS011;4481;43.406;24.454;2023-03-01T14:38:29;25.37;;;19.20;;
8889;SDS011;4481;43.406;24.454;2023-03-01T14:40:58;23.43;;;17.73;;
8889;SDS011;4481;43.406;24.454;2023-03-01T14:43:27;23.50;;;16.80;;
8889;SDS011;4481;43.406;24.454;2023-03-01T14:45:56;22.00;;;16.83;;
8889;SDS011;4481;43.406;24.454;2023-03-01T14:48:22;21.40;;;16.43;;
8889;SDS011;4481;43.406;24.454;2023-03-01T14:50:49;29.90;;;20.20;;
8889;SDS011;4481;43.406;24.454;2023-03-01T14:53:17;24.10;;;17.90;;
8889;SDS011;4481;43.406;24.454;2023-03-01T14:55:48;30.70;;;22.90;;
8889;SDS011;4481;43.406;24.454;2023-03-01T14:58:18;28.03;;;21.07;;
8889;SDS011;4481;43.406;24.454;2023-03-01T15:00:47;27.13;;;19.43;;
8889;SDS011;4481;43.406;24.454;2023-03-01T15:03:18;23.30;;;17.60;;